sensor_id;sensor_type;location;lat;lon;timestamp;temperature;humidity
20670;DHT22;10494;50.868;4.180;2023-03-14T00:00:58;11.50;99.90
20670;DHT22;10494;50.868;4.180;2023-03-14T00:03:24;11.50;99.90
20670;DHT22;10494;50.868;4.180;2023-03-14T00:05:50;11.40;99.90
20670;DHT22;10494;50.868;4.180;2023-03-14T00:08:16;11.30;99.90
20670;DHT22;10494;50.868;4.180;2023-03-14T00:10:43;11.30;99.90
20670;DHT22;10494;50.868;4.180;2023-03-14T00:13:09;11.20;99.90
20670;DHT22;10494;50.868;4.180;2023-03-14T00:15:35;11.20;99.90
20670;DHT22;10494;50.868;4.180;2023-03-14T00:18:01;11.20;99.90
20670;DHT22;10494;50.868;4.180;2023-03-14T00:20:26;11.30;99.90
20670;DHT22;10494;50.868;4.180;2023-03-14T00:22:52;11.30;99.90
20670;DHT22;10494;50.868;4.180;2023-03-14T00:25:18;11.20;99.90
20670;DHT22;10494;50.868;4.180;2023-03-14T00:27:43;11.10;99.90
20670;DHT22;10494;50.868;4.180;2023-03-14T00:30:10;11.00;99.90
20670;DHT22;10494;50.868;4.180;2023-03-14T00:32:36;11.00;99.90
20670;DHT22;10494;50.868;4.180;2023-03-14T00:35:02;11.00;99.90
20670;DHT22;10494;50.868;4.180;2023-03-14T00:37:28;10.90;99.90
20670;DHT22;10494;50.868;4.180;2023-03-14T00:39:54;10.90;99.90
20670;DHT22;10494;50.868;4.180;2023-03-14T00:42:20;10.90;99.90
20670;DHT22;10494;50.868;4.180;2023-03-14T00:44:45;10.80;99.90
20670;DHT22;10494;50.868;4.180;2023-03-14T00:47:11;10.80;99.90
20670;DHT22;10494;50.868;4.180;2023-03-14T00:49:37;10.70;99.90
20670;DHT22;10494;50.868;4.180;2023-03-14T00:52:03;10.90;99.90
20670;DHT22;10494;50.868;4.180;2023-03-14T00:54:28;10.90;99.90
20670;DHT22;10494;50.868;4.180;2023-03-14T00:56:54;10.90;99.90
20670;DHT22;10494;50.868;4.180;2023-03-14T00:59:19;10.90;99.90
20670;DHT22;10494;50.868;4.180;2023-03-14T01:01:45;10.90;99.90
20670;DHT22;10494;50.868;4.180;2023-03-14T01:04:11;10.80;99.90
20670;DHT22;10494;50.868;4.180;2023-03-14T01:06:36;10.90;99.90
20670;DHT22;10494;50.868;4.180;2023-03-14T01:09:02;10.80;99.90
20670;DHT22;10494;50.868;4.180;2023-03-14T01:11:33;10.80;99.90
20670;DHT22;10494;50.868;4.180;2023-03-14T01:13:59;10.80;99.90
20670;DHT22;10494;50.868;4.180;2023-03-14T01:16:27;10.70;99.90
20670;DHT22;10494;50.868;4.180;2023-03-14T01:18:53;10.70;99.90
20670;DHT22;10494;50.868;4.180;2023-03-14T01:21:23;10.70;99.90
20670;DHT22;10494;50.868;4.180;2023-03-14T01:23:50;10.60;99.90
20670;DHT22;10494;50.868;4.180;2023-03-14T01:26:19;10.60;99.90
20670;DHT22;10494;50.868;4.180;2023-03-14T01:28:46;10.60;99.90
20670;DHT22;10494;50.868;4.180;2023-03-14T01:31:12;10.60;99.90
20670;DHT22;10494;50.868;4.180;2023-03-14T01:33:38;10.60;99.90
20670;DHT22;10494;50.868;4.180;2023-03-14T01:36:04;10.70;99.90
20670;DHT22;10494;50.868;4.180;2023-03-14T01:38:31;10.70;99.90
20670;DHT22;10494;50.868;4.180;2023-03-14T01:40:57;10.70;99.90
20670;DHT22;10494;50.868;4.180;2023-03-14T01:43:23;10.60;99.90
20670;DHT22;10494;50.868;4.180;2023-03-14T01:48:28;10.60;99.90
20670;DHT22;10494;50.868;4.180;2023-03-14T01:50:56;10.70;99.90
20670;DHT22;10494;50.868;4.180;2023-03-14T01:53:22;10.80;99.90
20670;DHT22;10494;50.868;4.180;2023-03-14T01:55:48;10.80;99.90
20670;DHT22;10494;50.868;4.180;2023-03-14T01:58:16;10.80;99.90
20670;DHT22;10494;50.868;4.180;2023-03-14T02:00:42;10.90;99.90
20670;DHT22;10494;50.868;4.180;2023-03-14T02:03:14;10.80;99.90
20670;DHT22;10494;50.868;4.180;2023-03-14T02:05:41;10.80;99.90
20670;DHT22;10494;50.868;4.180;2023-03-14T02:08:11;10.80;99.90
20670;DHT22;10494;50.868;4.180;2023-03-14T02:10:42;10.80;99.90
20670;DHT22;10494;50.868;4.180;2023-03-14T02:13:08;10.70;99.90
20670;DHT22;10494;50.868;4.180;2023-03-14T02:15:35;10.70;99.90
20670;DHT22;10494;50.868;4.180;2023-03-14T02:18:02;10.60;99.90
20670;DHT22;10494;50.868;4.180;2023-03-14T02:20:49;10.50;99.90
20670;DHT22;10494;50.868;4.180;2023-03-14T02:23:31;10.50;99.90
20670;DHT22;10494;50.868;4.180;2023-03-14T02:26:12;10.40;99.90
20670;DHT22;10494;50.868;4.180;2023-03-14T02:28:40;10.40;99.90
20670;DHT22;10494;50.868;4.180;2023-03-14T02:31:06;10.50;99.90
20670;DHT22;10494;50.868;4.180;2023-03-14T02:33:35;10.50;99.90
20670;DHT22;10494;50.868;4.180;2023-03-14T02:36:05;10.50;99.90
20670;DHT22;10494;50.868;4.180;2023-03-14T02:38:45;10.50;99.90
20670;DHT22;10494;50.868;4.180;2023-03-14T02:41:11;10.50;99.90
20670;DHT22;10494;50.868;4.180;2023-03-14T02:43:37;10.40;99.90
20670;DHT22;10494;50.868;4.180;2023-03-14T02:46:05;10.30;99.90
20670;DHT22;10494;50.868;4.180;2023-03-14T02:48:34;10.30;99.90
20670;DHT22;10494;50.868;4.180;2023-03-14T02:51:01;10.20;99.90
20670;DHT22;10494;50.868;4.180;2023-03-14T02:53:32;10.20;99.90
20670;DHT22;10494;50.868;4.180;2023-03-14T02:55:58;10.20;99.90
20670;DHT22;10494;50.868;4.180;2023-03-14T02:58:25;10.20;99.90
20670;DHT22;10494;50.868;4.180;2023-03-14T03:00:50;10.20;99.90
20670;DHT22;10494;50.868;4.180;2023-03-14T03:03:16;10.10;99.90
20670;DHT22;10494;50.868;4.180;2023-03-14T03:05:42;10.10;99.90
20670;DHT22;10494;50.868;4.180;2023-03-14T03:08:10;10.10;99.90
20670;DHT22;10494;50.868;4.180;2023-03-14T03:10:36;10.10;99.90
20670;DHT22;10494;50.868;4.180;2023-03-14T03:13:02;10.00;99.90
20670;DHT22;10494;50.868;4.180;2023-03-14T03:15:27;10.10;99.90
20670;DHT22;10494;50.868;4.180;2023-03-14T03:17:53;10.10;99.90
20670;DHT22;10494;50.868;4.180;2023-03-14T03:20:19;10.10;99.90
20670;DHT22;10494;50.868;4.180;2023-03-14T03:22:44;10.10;99.90
20670;DHT22;10494;50.868;4.180;2023-03-14T03:25:10;10.10;99.90
20670;DHT22;10494;50.868;4.180;2023-03-14T03:27:37;10.20;99.90
20670;DHT22;10494;50.868;4.180;2023-03-14T03:30:04;10.20;99.90
20670;DHT22;10494;50.868;4.180;2023-03-14T03:32:31;10.20;99.90
20670;DHT22;10494;50.868;4.180;2023-03-14T03:34:56;10.20;99.90
20670;DHT22;10494;50.868;4.180;2023-03-14T03:37:22;10.20;99.90
20670;DHT22;10494;50.868;4.180;2023-03-14T03:39:50;10.20;99.90
20670;DHT22;10494;50.868;4.180;2023-03-14T03:42:16;10.20;99.90
20670;DHT22;10494;50.868;4.180;2023-03-14T03:44:42;10.20;99.90
20670;DHT22;10494;50.868;4.180;2023-03-14T03:47:07;10.20;99.90
20670;DHT22;10494;50.868;4.180;2023-03-14T03:49:33;10.20;99.90
20670;DHT22;10494;50.868;4.180;2023-03-14T03:51:59;10.30;99.90
20670;DHT22;10494;50.868;4.180;2023-03-14T03:54:25;10.20;99.90
20670;DHT22;10494;50.868;4.180;2023-03-14T03:56:50;10.20;99.90
20670;DHT22;10494;50.868;4.180;2023-03-14T03:59:16;10.30;99.90
20670;DHT22;10494;50.868;4.180;2023-03-14T04:01:42;10.30;99.90
20670;DHT22;10494;50.868;4.180;2023-03-14T04:04:07;10.30;99.90
20670;DHT22;10494;50.868;4.180;2023-03-14T04:06:33;10.30;99.90
20670;DHT22;10494;50.868;4.180;2023-03-14T04:08:59;10.40;99.90
20670;DHT22;10494;50.868;4.180;2023-03-14T04:11:25;10.40;99.90
20670;DHT22;10494;50.868;4.180;2023-03-14T04:13:50;10.30;99.90
20670;DHT22;10494;50.868;4.180;2023-03-14T04:16:21;10.30;99.90
20670;DHT22;10494;50.868;4.180;2023-03-14T04:18:48;10.40;99.90
20670;DHT22;10494;50.868;4.180;2023-03-14T04:21:14;10.40;99.90
20670;DHT22;10494;50.868;4.180;2023-03-14T04:23:39;10.40;99.90
20670;DHT22;10494;50.868;4.180;2023-03-14T04:26:05;10.40;99.90
20670;DHT22;10494;50.868;4.180;2023-03-14T04:28:31;10.50;99.90
20670;DHT22;10494;50.868;4.180;2023-03-14T04:30:57;10.60;99.90
20670;DHT22;10494;50.868;4.180;2023-03-14T04:33:22;10.60;99.90
20670;DHT22;10494;50.868;4.180;2023-03-14T04:35:48;10.60;99.90
20670;DHT22;10494;50.868;4.180;2023-03-14T04:38:15;10.60;99.90
20670;DHT22;10494;50.868;4.180;2023-03-14T04:40:41;10.60;99.90
20670;DHT22;10494;50.868;4.180;2023-03-14T04:43:08;10.60;99.90
20670;DHT22;10494;50.868;4.180;2023-03-14T04:45:35;10.60;99.90
20670;DHT22;10494;50.868;4.180;2023-03-14T04:48:00;10.60;99.90
20670;DHT22;10494;50.868;4.180;2023-03-14T04:50:26;10.60;99.90
20670;DHT22;10494;50.868;4.180;2023-03-14T04:52:52;10.60;99.90
20670;DHT22;10494;50.868;4.180;2023-03-14T04:55:17;10.60;99.90
20670;DHT22;10494;50.868;4.180;2023-03-14T04:57:43;10.60;99.90
20670;DHT22;10494;50.868;4.180;2023-03-14T05:00:09;10.60;99.90
20670;DHT22;10494;50.868;4.180;2023-03-14T05:02:35;10.60;99.90
20670;DHT22;10494;50.868;4.180;2023-03-14T05:05:00;10.60;99.90
20670;DHT22;10494;50.868;4.180;2023-03-14T05:07:26;10.60;99.90
20670;DHT22;10494;50.868;4.180;2023-03-14T05:09:52;10.60;99.90
20670;DHT22;10494;50.868;4.180;2023-03-14T05:12:19;10.60;99.90
20670;DHT22;10494;50.868;4.180;2023-03-14T05:14:45;10.50;99.90
20670;DHT22;10494;50.868;4.180;2023-03-14T05:17:12;10.60;99.90
20670;DHT22;10494;50.868;4.180;2023-03-14T05:19:46;10.60;99.90
20670;DHT22;10494;50.868;4.180;2023-03-14T05:22:12;10.70;99.90
20670;DHT22;10494;50.868;4.180;2023-03-14T05:24:37;10.70;99.90
20670;DHT22;10494;50.868;4.180;2023-03-14T05:27:03;10.70;99.90
20670;DHT22;10494;50.868;4.180;2023-03-14T05:29:29;10.70;99.90
20670;DHT22;10494;50.868;4.180;2023-03-14T05:31:55;10.70;99.90
20670;DHT22;10494;50.868;4.180;2023-03-14T05:34:20;10.80;99.90
20670;DHT22;10494;50.868;4.180;2023-03-14T05:36:46;10.80;99.90
20670;DHT22;10494;50.868;4.180;2023-03-14T05:39:13;10.80;99.90
20670;DHT22;10494;50.868;4.180;2023-03-14T05:41:39;10.80;99.90
20670;DHT22;10494;50.868;4.180;2023-03-14T05:44:04;10.70;99.90
20670;DHT22;10494;50.868;4.180;2023-03-14T05:46:30;10.80;99.90
20670;DHT22;10494;50.868;4.180;2023-03-14T05:48:57;10.80;99.90
20670;DHT22;10494;50.868;4.180;2023-03-14T05:51:23;10.80;99.90
20670;DHT22;10494;50.868;4.180;2023-03-14T05:53:49;10.80;99.90
20670;DHT22;10494;50.868;4.180;2023-03-14T05:56:14;10.70;99.90
20670;DHT22;10494;50.868;4.180;2023-03-14T05:58:40;10.80;99.90
20670;DHT22;10494;50.868;4.180;2023-03-14T06:01:06;10.70;99.90
20670;DHT22;10494;50.868;4.180;2023-03-14T06:03:32;10.70;99.90
20670;DHT22;10494;50.868;4.180;2023-03-14T06:05:58;10.70;99.90
20670;DHT22;10494;50.868;4.180;2023-03-14T06:08:24;10.60;99.90
20670;DHT22;10494;50.868;4.180;2023-03-14T06:10:50;10.50;99.90
20670;DHT22;10494;50.868;4.180;2023-03-14T06:13:16;10.60;99.90
20670;DHT22;10494;50.868;4.180;2023-03-14T06:15:42;10.50;99.90
20670;DHT22;10494;50.868;4.180;2023-03-14T06:18:07;10.50;99.90
20670;DHT22;10494;50.868;4.180;2023-03-14T06:20:36;10.50;99.90
20670;DHT22;10494;50.868;4.180;2023-03-14T06:23:01;10.60;99.90
20670;DHT22;10494;50.868;4.180;2023-03-14T06:25:27;10.60;99.90
20670;DHT22;10494;50.868;4.180;2023-03-14T06:27:53;10.60;99.90
20670;DHT22;10494;50.868;4.180;2023-03-14T06:30:18;10.50;99.90
20670;DHT22;10494;50.868;4.180;2023-03-14T06:32:44;10.60;99.90
20670;DHT22;10494;50.868;4.180;2023-03-14T06:35:09;10.60;99.90
20670;DHT22;10494;50.868;4.180;2023-03-14T06:37:35;10.30;99.90
20670;DHT22;10494;50.868;4.180;2023-03-14T06:40:00;10.00;99.90
20670;DHT22;10494;50.868;4.180;2023-03-14T06:42:26;9.80;99.90
20670;DHT22;10494;50.868;4.180;2023-03-14T06:44:52;9.50;99.90
20670;DHT22;10494;50.868;4.180;2023-03-14T06:47:17;9.30;99.90
20670;DHT22;10494;50.868;4.180;2023-03-14T06:49:43;9.30;99.90
20670;DHT22;10494;50.868;4.180;2023-03-14T06:52:09;9.20;99.90
20670;DHT22;10494;50.868;4.180;2023-03-14T06:54:34;9.20;99.90
20670;DHT22;10494;50.868;4.180;2023-03-14T06:57:00;8.90;99.90
20670;DHT22;10494;50.868;4.180;2023-03-14T06:59:25;8.70;99.90
20670;DHT22;10494;50.868;4.180;2023-03-14T07:01:51;8.40;99.90
20670;DHT22;10494;50.868;4.180;2023-03-14T07:04:17;8.30;99.90
20670;DHT22;10494;50.868;4.180;2023-03-14T07:06:43;8.20;99.90
20670;DHT22;10494;50.868;4.180;2023-03-14T07:09:11;8.30;99.90
20670;DHT22;10494;50.868;4.180;2023-03-14T07:11:37;8.30;99.90
20670;DHT22;10494;50.868;4.180;2023-03-14T07:14:03;8.30;99.90
20670;DHT22;10494;50.868;4.180;2023-03-14T07:16:28;8.40;99.90
20670;DHT22;10494;50.868;4.180;2023-03-14T07:19:01;8.40;99.90
20670;DHT22;10494;50.868;4.180;2023-03-14T07:21:27;8.50;99.90
20670;DHT22;10494;50.868;4.180;2023-03-14T07:23:52;8.50;99.90
20670;DHT22;10494;50.868;4.180;2023-03-14T07:26:18;8.60;99.90
20670;DHT22;10494;50.868;4.180;2023-03-14T07:28:44;8.40;99.90
20670;DHT22;10494;50.868;4.180;2023-03-14T07:31:09;8.30;99.90
20670;DHT22;10494;50.868;4.180;2023-03-14T07:33:35;8.20;99.90
20670;DHT22;10494;50.868;4.180;2023-03-14T07:36:01;8.30;99.90
20670;DHT22;10494;50.868;4.180;2023-03-14T07:38:27;8.30;99.90
20670;DHT22;10494;50.868;4.180;2023-03-14T07:41:04;8.40;99.90
20670;DHT22;10494;50.868;4.180;2023-03-14T07:43:30;8.50;99.90
20670;DHT22;10494;50.868;4.180;2023-03-14T07:45:56;8.50;99.90
20670;DHT22;10494;50.868;4.180;2023-03-14T07:48:22;8.40;99.90
20670;DHT22;10494;50.868;4.180;2023-03-14T07:50:50;8.30;99.90
20670;DHT22;10494;50.868;4.180;2023-03-14T07:53:16;8.40;99.90
20670;DHT22;10494;50.868;4.180;2023-03-14T07:55:41;8.50;99.90
20670;DHT22;10494;50.868;4.180;2023-03-14T07:58:07;8.40;99.90
20670;DHT22;10494;50.868;4.180;2023-03-14T08:00:32;8.40;99.90
20670;DHT22;10494;50.868;4.180;2023-03-14T08:02:58;8.40;99.90
20670;DHT22;10494;50.868;4.180;2023-03-14T08:05:24;8.60;99.90
20670;DHT22;10494;50.868;4.180;2023-03-14T08:07:50;8.60;99.90
20670;DHT22;10494;50.868;4.180;2023-03-14T08:10:15;8.70;99.90
20670;DHT22;10494;50.868;4.180;2023-03-14T08:12:49;8.60;99.90
20670;DHT22;10494;50.868;4.180;2023-03-14T08:15:14;8.80;99.90
20670;DHT22;10494;50.868;4.180;2023-03-14T08:17:40;8.70;99.90
20670;DHT22;10494;50.868;4.180;2023-03-14T08:20:06;8.70;99.90
20670;DHT22;10494;50.868;4.180;2023-03-14T08:22:37;8.60;99.90
20670;DHT22;10494;50.868;4.180;2023-03-14T08:25:03;8.70;99.90
20670;DHT22;10494;50.868;4.180;2023-03-14T08:27:28;8.60;99.90
20670;DHT22;10494;50.868;4.180;2023-03-14T08:29:54;8.50;99.90
20670;DHT22;10494;50.868;4.180;2023-03-14T08:32:21;8.30;99.90
20670;DHT22;10494;50.868;4.180;2023-03-14T08:34:48;8.30;99.90
20670;DHT22;10494;50.868;4.180;2023-03-14T08:37:14;8.10;99.90
20670;DHT22;10494;50.868;4.180;2023-03-14T08:39:40;8.10;99.90
20670;DHT22;10494;50.868;4.180;2023-03-14T08:42:05;8.20;99.90
20670;DHT22;10494;50.868;4.180;2023-03-14T08:44:31;8.10;99.90
20670;DHT22;10494;50.868;4.180;2023-03-14T08:46:57;8.00;99.90
20670;DHT22;10494;50.868;4.180;2023-03-14T08:49:22;8.00;99.90
20670;DHT22;10494;50.868;4.180;2023-03-14T08:51:48;8.00;99.90
20670;DHT22;10494;50.868;4.180;2023-03-14T08:54:13;7.80;99.90
20670;DHT22;10494;50.868;4.180;2023-03-14T08:56:39;7.90;99.90
20670;DHT22;10494;50.868;4.180;2023-03-14T08:59:05;8.00;99.90
20670;DHT22;10494;50.868;4.180;2023-03-14T09:01:31;8.00;99.90
20670;DHT22;10494;50.868;4.180;2023-03-14T09:03:56;8.20;99.90
20670;DHT22;10494;50.868;4.180;2023-03-14T09:06:22;8.30;99.90
20670;DHT22;10494;50.868;4.180;2023-03-14T09:08:48;7.90;99.90
20670;DHT22;10494;50.868;4.180;2023-03-14T09:11:14;7.70;99.90
20670;DHT22;10494;50.868;4.180;2023-03-14T09:13:40;7.80;99.90
20670;DHT22;10494;50.868;4.180;2023-03-14T09:16:07;8.00;99.90
20670;DHT22;10494;50.868;4.180;2023-03-14T09:18:33;8.20;99.90
20670;DHT22;10494;50.868;4.180;2023-03-14T09:20:58;8.30;99.90
20670;DHT22;10494;50.868;4.180;2023-03-14T09:23:24;8.30;99.90
20670;DHT22;10494;50.868;4.180;2023-03-14T09:25:57;8.40;99.90
20670;DHT22;10494;50.868;4.180;2023-03-14T09:28:23;8.30;99.90
20670;DHT22;10494;50.868;4.180;2023-03-14T09:30:48;8.30;99.90
20670;DHT22;10494;50.868;4.180;2023-03-14T09:33:15;8.20;99.90
20670;DHT22;10494;50.868;4.180;2023-03-14T09:35:41;8.50;99.90
20670;DHT22;10494;50.868;4.180;2023-03-14T09:38:06;8.40;99.90
20670;DHT22;10494;50.868;4.180;2023-03-14T09:40:35;8.60;99.90
20670;DHT22;10494;50.868;4.180;2023-03-14T09:43:01;8.70;99.90
20670;DHT22;10494;50.868;4.180;2023-03-14T09:47:58;8.60;99.90
20670;DHT22;10494;50.868;4.180;2023-03-14T09:50:26;8.40;99.90
20670;DHT22;10494;50.868;4.180;2023-03-14T09:52:56;8.50;99.90
20670;DHT22;10494;50.868;4.180;2023-03-14T09:55:24;8.60;99.90
20670;DHT22;10494;50.868;4.180;2023-03-14T09:57:58;8.70;99.90
20670;DHT22;10494;50.868;4.180;2023-03-14T10:00:29;8.70;99.90
20670;DHT22;10494;50.868;4.180;2023-03-14T10:02:56;8.50;99.90
20670;DHT22;10494;50.868;4.180;2023-03-14T10:05:26;8.50;99.90
20670;DHT22;10494;50.868;4.180;2023-03-14T10:07:53;8.50;99.90
20670;DHT22;10494;50.868;4.180;2023-03-14T10:10:24;8.60;99.90
20670;DHT22;10494;50.868;4.180;2023-03-14T10:12:59;8.60;99.90
20670;DHT22;10494;50.868;4.180;2023-03-14T10:15:34;8.80;99.90
20670;DHT22;10494;50.868;4.180;2023-03-14T10:18:02;8.80;99.90
20670;DHT22;10494;50.868;4.180;2023-03-14T10:20:39;8.60;99.90
20670;DHT22;10494;50.868;4.180;2023-03-14T10:23:18;8.50;99.90
20670;DHT22;10494;50.868;4.180;2023-03-14T10:26:17;8.30;99.90
20670;DHT22;10494;50.868;4.180;2023-03-14T10:28:48;8.40;99.90
20670;DHT22;10494;50.868;4.180;2023-03-14T10:31:17;8.30;99.90
20670;DHT22;10494;50.868;4.180;2023-03-14T10:34:00;8.10;99.90
20670;DHT22;10494;50.868;4.180;2023-03-14T10:36:31;8.00;99.90
20670;DHT22;10494;50.868;4.180;2023-03-14T10:39:25;7.90;99.90
20670;DHT22;10494;50.868;4.180;2023-03-14T10:42:30;7.90;99.90
20670;DHT22;10494;50.868;4.180;2023-03-14T10:45:03;7.80;99.90
20670;DHT22;10494;50.868;4.180;2023-03-14T10:47:32;7.80;99.90
20670;DHT22;10494;50.868;4.180;2023-03-14T10:50:25;7.70;99.90
20670;DHT22;10494;50.868;4.180;2023-03-14T10:52:52;7.80;99.90
20670;DHT22;10494;50.868;4.180;2023-03-14T10:55:18;7.80;99.90
20670;DHT22;10494;50.868;4.180;2023-03-14T10:57:44;7.60;99.90
20670;DHT22;10494;50.868;4.180;2023-03-14T11:00:21;7.40;99.90
20670;DHT22;10494;50.868;4.180;2023-03-14T11:05:49;7.30;99.90
20670;DHT22;10494;50.868;4.180;2023-03-14T11:08:20;7.30;99.90
20670;DHT22;10494;50.868;4.180;2023-03-14T11:10:53;7.30;99.90
20670;DHT22;10494;50.868;4.180;2023-03-14T11:13:26;7.50;99.90
20670;DHT22;10494;50.868;4.180;2023-03-14T11:16:21;7.30;99.90
20670;DHT22;10494;50.868;4.180;2023-03-14T11:21:54;7.10;99.90
20670;DHT22;10494;50.868;4.180;2023-03-14T11:24:55;7.30;99.90
20670;DHT22;10494;50.868;4.180;2023-03-14T11:27:36;7.30;99.90
20670;DHT22;10494;50.868;4.180;2023-03-14T11:33:01;7.20;99.90
20670;DHT22;10494;50.868;4.180;2023-03-14T11:35:55;7.20;99.90
20670;DHT22;10494;50.868;4.180;2023-03-14T11:38:38;7.10;99.90
20670;DHT22;10494;50.868;4.180;2023-03-14T11:41:14;6.90;99.90
20670;DHT22;10494;50.868;4.180;2023-03-14T11:43:48;6.80;99.90
20670;DHT22;10494;50.868;4.180;2023-03-14T11:46:34;6.70;99.90
20670;DHT22;10494;50.868;4.180;2023-03-14T11:49:08;6.80;99.90
20670;DHT22;10494;50.868;4.180;2023-03-14T11:51:38;6.80;99.90
20670;DHT22;10494;50.868;4.180;2023-03-14T11:59:17;6.90;99.90
20670;DHT22;10494;50.868;4.180;2023-03-14T12:07:19;7.00;99.90
20670;DHT22;10494;50.868;4.180;2023-03-14T12:09:48;7.10;99.90
20670;DHT22;10494;50.868;4.180;2023-03-14T12:12:19;7.20;99.90
20670;DHT22;10494;50.868;4.180;2023-03-14T12:14:53;7.30;99.90
20670;DHT22;10494;50.868;4.180;2023-03-14T12:17:21;7.30;99.90
20670;DHT22;10494;50.868;4.180;2023-03-14T12:20:21;7.40;99.90
20670;DHT22;10494;50.868;4.180;2023-03-14T12:23:02;7.30;99.90
20670;DHT22;10494;50.868;4.180;2023-03-14T12:25:33;7.30;99.90
20670;DHT22;10494;50.868;4.180;2023-03-14T12:28:18;7.40;99.90
20670;DHT22;10494;50.868;4.180;2023-03-14T12:30:44;7.40;99.90
20670;DHT22;10494;50.868;4.180;2023-03-14T12:35:49;7.50;99.90
20670;DHT22;10494;50.868;4.180;2023-03-14T12:38:23;7.30;99.90
20670;DHT22;10494;50.868;4.180;2023-03-14T12:43:40;7.20;99.90
20670;DHT22;10494;50.868;4.180;2023-03-14T12:46:19;7.20;99.90
20670;DHT22;10494;50.868;4.180;2023-03-14T12:51:38;7.40;99.90
20670;DHT22;10494;50.868;4.180;2023-03-14T12:59:46;7.60;99.90
20670;DHT22;10494;50.868;4.180;2023-03-14T13:02:22;7.70;99.90
20670;DHT22;10494;50.868;4.180;2023-03-14T13:05:22;7.80;99.90
20670;DHT22;10494;50.868;4.180;2023-03-14T13:10:30;7.80;99.90
20670;DHT22;10494;50.868;4.180;2023-03-14T13:15:48;7.50;99.90
20670;DHT22;10494;50.868;4.180;2023-03-14T13:18:41;7.60;99.90
20670;DHT22;10494;50.868;4.180;2023-03-14T13:23:39;7.50;99.90
20670;DHT22;10494;50.868;4.180;2023-03-14T13:26:11;7.70;99.90
20670;DHT22;10494;50.868;4.180;2023-03-14T13:28:38;7.70;99.90
20670;DHT22;10494;50.868;4.180;2023-03-14T13:31:04;7.50;99.90
20670;DHT22;10494;50.868;4.180;2023-03-14T13:33:32;7.40;99.90
20670;DHT22;10494;50.868;4.180;2023-03-14T13:36:01;7.30;99.90
20670;DHT22;10494;50.868;4.180;2023-03-14T13:38:30;7.50;99.90
20670;DHT22;10494;50.868;4.180;2023-03-14T13:40:58;7.70;99.90
20670;DHT22;10494;50.868;4.180;2023-03-14T13:43:43;7.50;99.90
20670;DHT22;10494;50.868;4.180;2023-03-14T13:46:15;7.10;99.90
20670;DHT22;10494;50.868;4.180;2023-03-14T13:48:48;6.50;99.90
20670;DHT22;10494;50.868;4.180;2023-03-14T13:51:17;6.20;99.90
20670;DHT22;10494;50.868;4.180;2023-03-14T13:56:11;5.90;99.90
20670;DHT22;10494;50.868;4.180;2023-03-14T13:58:37;6.20;99.90
20670;DHT22;10494;50.868;4.180;2023-03-14T14:03:52;6.90;99.90
20670;DHT22;10494;50.868;4.180;2023-03-14T14:06:39;7.40;99.90
20670;DHT22;10494;50.868;4.180;2023-03-14T14:09:29;7.80;99.90
20670;DHT22;10494;50.868;4.180;2023-03-14T14:14:49;8.40;99.90
20670;DHT22;10494;50.868;4.180;2023-03-14T14:17:23;8.40;99.90
20670;DHT22;10494;50.868;4.180;2023-03-14T14:19:50;7.90;99.90
20670;DHT22;10494;50.868;4.180;2023-03-14T14:22:18;7.70;99.90
20670;DHT22;10494;50.868;4.180;2023-03-14T14:24:43;7.10;99.90
20670;DHT22;10494;50.868;4.180;2023-03-14T14:29:42;6.60;99.90
20670;DHT22;10494;50.868;4.180;2023-03-14T14:34:47;6.50;99.90
20670;DHT22;10494;50.868;4.180;2023-03-14T14:37:22;6.40;99.90
20670;DHT22;10494;50.868;4.180;2023-03-14T14:39:50;6.40;99.90
20670;DHT22;10494;50.868;4.180;2023-03-14T14:42:18;6.30;99.90
20670;DHT22;10494;50.868;4.180;2023-03-14T14:44:47;5.80;99.90
20670;DHT22;10494;50.868;4.180;2023-03-14T14:47:18;5.60;99.90
20670;DHT22;10494;50.868;4.180;2023-03-14T14:49:47;5.50;99.90
20670;DHT22;10494;50.868;4.180;2023-03-14T14:52:22;5.50;99.90
20670;DHT22;10494;50.868;4.180;2023-03-14T14:54:59;5.60;99.90
20670;DHT22;10494;50.868;4.180;2023-03-14T14:57:27;5.70;99.90
20670;DHT22;10494;50.868;4.180;2023-03-14T14:59:59;5.60;99.90
20670;DHT22;10494;50.868;4.180;2023-03-14T15:04:54;5.90;99.90
20670;DHT22;10494;50.868;4.180;2023-03-14T15:07:19;6.50;99.90
20670;DHT22;10494;50.868;4.180;2023-03-14T15:09:45;7.00;99.90
20670;DHT22;10494;50.868;4.180;2023-03-14T15:12:10;7.00;99.90
20670;DHT22;10494;50.868;4.180;2023-03-14T15:14:36;6.50;99.90
20670;DHT22;10494;50.868;4.180;2023-03-14T15:17:03;6.50;99.90
20670;DHT22;10494;50.868;4.180;2023-03-14T15:19:28;6.60;99.90
20670;DHT22;10494;50.868;4.180;2023-03-14T15:21:58;7.00;99.90
20670;DHT22;10494;50.868;4.180;2023-03-14T15:24:24;7.50;99.90
20670;DHT22;10494;50.868;4.180;2023-03-14T15:26:50;7.80;99.90
20670;DHT22;10494;50.868;4.180;2023-03-14T15:29:16;8.20;99.90
20670;DHT22;10494;50.868;4.180;2023-03-14T15:31:42;8.40;99.90
20670;DHT22;10494;50.868;4.180;2023-03-14T15:34:11;8.40;99.90
20670;DHT22;10494;50.868;4.180;2023-03-14T15:36:37;8.60;99.90
20670;DHT22;10494;50.868;4.180;2023-03-14T15:39:05;8.60;99.90
20670;DHT22;10494;50.868;4.180;2023-03-14T15:41:31;8.70;99.90
20670;DHT22;10494;50.868;4.180;2023-03-14T15:43:57;8.60;99.90
20670;DHT22;10494;50.868;4.180;2023-03-14T15:46:23;8.60;99.90
20670;DHT22;10494;50.868;4.180;2023-03-14T15:48:50;8.60;99.90
20670;DHT22;10494;50.868;4.180;2023-03-14T15:51:16;8.60;99.90
20670;DHT22;10494;50.868;4.180;2023-03-14T15:53:42;8.50;99.90
20670;DHT22;10494;50.868;4.180;2023-03-14T15:56:13;8.50;99.90
20670;DHT22;10494;50.868;4.180;2023-03-14T15:58:39;8.50;99.90
20670;DHT22;10494;50.868;4.180;2023-03-14T16:01:06;8.40;99.90
20670;DHT22;10494;50.868;4.180;2023-03-14T16:03:34;8.40;99.90
20670;DHT22;10494;50.868;4.180;2023-03-14T16:05:59;8.40;99.90
20670;DHT22;10494;50.868;4.180;2023-03-14T16:08:25;8.40;99.90
20670;DHT22;10494;50.868;4.180;2023-03-14T16:10:51;8.40;99.90
20670;DHT22;10494;50.868;4.180;2023-03-14T16:13:18;8.30;99.90
20670;DHT22;10494;50.868;4.180;2023-03-14T16:15:53;8.30;99.90
20670;DHT22;10494;50.868;4.180;2023-03-14T16:18:21;8.40;99.90
20670;DHT22;10494;50.868;4.180;2023-03-14T16:21:02;8.40;99.90
20670;DHT22;10494;50.868;4.180;2023-03-14T16:23:29;8.40;99.90
20670;DHT22;10494;50.868;4.180;2023-03-14T16:25:56;8.40;99.90
20670;DHT22;10494;50.868;4.180;2023-03-14T16:28:22;8.40;99.90
20670;DHT22;10494;50.868;4.180;2023-03-14T16:30:48;8.50;99.90
20670;DHT22;10494;50.868;4.180;2023-03-14T16:33:15;8.50;99.90
20670;DHT22;10494;50.868;4.180;2023-03-14T16:35:41;8.40;99.90
20670;DHT22;10494;50.868;4.180;2023-03-14T16:38:07;8.50;99.90
20670;DHT22;10494;50.868;4.180;2023-03-14T16:40:33;8.40;99.90
20670;DHT22;10494;50.868;4.180;2023-03-14T16:42:58;8.20;99.90
20670;DHT22;10494;50.868;4.180;2023-03-14T16:45:24;8.00;99.90
20670;DHT22;10494;50.868;4.180;2023-03-14T16:47:50;8.00;99.90
20670;DHT22;10494;50.868;4.180;2023-03-14T16:50:15;8.00;99.90